Time;durP1;ratioP1;P1;durP2;ratioP2;P2;SDS_P1;SDS_P2;PMS_P1;PMS_P2;Temp;Humidity;BMP_temperature;BMP_pressure;BME280_temperature;BME280_humidity;BME280_pressure;Samples;Min_cycle;Max_cycle;Signal;HPM_P1;HPM_P2
2021/12/12 00:00:46;;;;;;;26.27;9.35;;;6.40;99.90;;;;;;5035156;28;20025;-73
2021/12/12 00:03:31;;;;;;;22.30;9.27;;;6.40;99.90;;;;;;5036516;28;20024;-74
2021/12/12 00:05:58;;;;;;;25.42;9.27;;;6.40;99.90;;;;;;5035819;28;20029;-74
2021/12/12 00:08:24;;;;;;;40.47;18.95;;;6.40;99.90;;;;;;5035584;28;20501;-74
2021/12/12 00:11:05;;;;;;;24.38;9.23;;;6.50;99.90;;;;;;5035386;28;20108;-74
2021/12/12 00:13:37;;;;;;;33.75;10.10;;;6.40;99.90;;;;;;5035336;28;20025;-74
2021/12/12 00:16:03;;;;;;;29.92;11.65;;;6.50;99.90;;;;;;5034787;28;20018;-74
2021/12/12 00:18:29;;;;;;;28.98;9.93;;;6.50;99.90;;;;;;5036292;28;20026;-74
2021/12/12 00:20:55;;;;;;;26.30;9.55;;;6.50;99.90;;;;;;5035485;28;20029;-74
2021/12/12 00:23:22;;;;;;;30.23;9.30;;;6.50;99.90;;;;;;5035138;28;20485;-74
2021/12/12 00:25:52;;;;;;;20.52;10.02;;;6.50;99.90;;;;;;5034489;28;20038;-74
2021/12/12 00:28:21;;;;;;;31.27;9.10;;;6.60;99.90;;;;;;5035331;28;20060;-74
2021/12/12 00:30:48;;;;;;;33.88;10.18;;;6.60;99.90;;;;;;5034399;28;20025;-74
2021/12/12 00:33:16;;;;;;;28.52;12.38;;;6.60;99.90;;;;;;5034801;28;20521;-74
2021/12/12 00:35:42;;;;;;;32.80;10.63;;;6.60;99.90;;;;;;5034866;28;20030;-74
2021/12/12 00:38:12;;;;;;;28.70;11.02;;;6.60;99.90;;;;;;5034420;28;20061;-73
2021/12/12 00:40:43;;;;;;;30.05;9.20;;;6.60;99.90;;;;;;5034600;28;20465;-74
2021/12/12 00:43:19;;;;;;;32.90;9.73;;;6.60;99.90;;;;;;5035408;28;20117;-74
2021/12/12 00:45:45;;;;;;;28.55;9.98;;;6.60;99.90;;;;;;5033312;28;20355;-74
2021/12/12 00:48:11;;;;;;;27.83;10.02;;;6.70;99.90;;;;;;5035584;28;20052;-74
2021/12/12 00:50:40;;;;;;;24.70;9.15;;;6.60;99.90;;;;;;5033730;28;20052;-74
2021/12/12 00:53:08;;;;;;;33.42;10.30;;;6.60;99.90;;;;;;5035126;28;20039;-74
2021/12/12 00:55:38;;;;;;;31.92;10.00;;;6.70;99.90;;;;;;5049253;28;20107;-74
2021/12/12 00:58:09;;;;;;;27.63;9.40;;;6.60;99.90;;;;;;5033122;28;20025;-74
2021/12/12 01:00:41;;;;;;;35.00;10.02;;;6.60;99.90;;;;;;5031795;28;20123;-73
2021/12/12 01:03:09;;;;;;;22.70;10.07;;;6.60;99.90;;;;;;5034941;28;20025;-75
2021/12/12 01:05:36;;;;;;;27.90;9.18;;;6.60;99.90;;;;;;5033043;28;20030;-75
2021/12/12 01:08:05;;;;;;;34.33;10.25;;;6.70;99.90;;;;;;5033755;28;20438;-75
2021/12/12 01:10:45;;;;;;;29.42;11.13;;;6.60;99.90;;;;;;5033086;28;20559;-76
2021/12/12 01:13:11;;;;;;;31.23;10.68;;;6.60;99.90;;;;;;5034647;28;20033;-75
2021/12/12 01:15:59;;;;;;;30.67;10.63;;;6.60;99.90;;;;;;5033899;28;20020;-75
2021/12/12 01:18:33;;;;;;;25.27;11.18;;;6.70;99.90;;;;;;5034797;28;20032;-74
2021/12/12 01:21:11;;;;;;;31.48;12.65;;;6.70;99.90;;;;;;5034163;28;20025;-74
2021/12/12 01:24:24;;;;;;;26.08;9.98;;;6.70;99.90;;;;;;5023801;28;20032;-73
2021/12/12 01:26:56;;;;;;;29.95;10.10;;;6.70;99.90;;;;;;5033755;28;20045;-75
2021/12/12 01:29:22;;;;;;;38.60;10.20;;;6.80;99.90;;;;;;5034442;28;20053;-75
2021/12/12 01:31:50;;;;;;;28.40;10.32;;;6.70;99.90;;;;;;5033920;28;20489;-75
2021/12/12 01:34:25;;;;;;;37.25;10.75;;;6.70;99.90;;;;;;5034521;28;20466;-75
2021/12/12 01:39:45;;;;;;;32.30;10.55;;;6.70;99.90;;;;;;5033802;28;20506;-75
2021/12/12 01:42:40;;;;;;;33.00;11.10;;;6.80;99.90;;;;;;5032133;28;20021;-75
2021/12/12 01:45:32;;;;;;;30.88;11.05;;;6.80;99.90;;;;;;5034125;28;20018;-75
2021/12/12 01:48:04;;;;;;;33.70;10.43;;;6.80;99.90;;;;;;5028694;28;20064;-75
2021/12/12 01:50:32;;;;;;;32.15;10.48;;;6.80;99.90;;;;;;5033830;28;20113;-75
2021/12/12 01:53:01;;;;;;;27.35;10.57;;;6.80;99.90;;;;;;5048076;28;20420;-75
2021/12/12 01:55:54;;;;;;;31.23;10.45;;;6.90;99.90;;;;;;5032476;28;20041;-75
2021/12/12 01:58:22;;;;;;;;;;;6.80;99.90;;;;;;5032680;28;20034;-75
2021/12/12 02:00:50;;;;;;;30.45;10.45;;;6.80;99.90;;;;;;5032544;28;19913;-75
2021/12/12 02:03:19;;;;;;;34.35;11.32;;;6.90;99.90;;;;;;5033049;28;20060;-75
2021/12/12 02:05:46;;;;;;;29.48;10.15;;;6.90;99.90;;;;;;5033118;28;20079;-75
2021/12/12 02:08:16;;;;;;;27.05;10.02;;;6.90;99.90;;;;;;5032502;28;20025;-75
2021/12/12 02:10:46;;;;;;;26.35;10.77;;;7.00;99.90;;;;;;5032307;28;20101;-75
2021/12/12 02:13:17;;;;;;;31.67;9.93;;;6.90;99.90;;;;;;5033488;28;20033;-75
2021/12/12 02:15:46;;;;;;;32.75;10.30;;;6.90;99.90;;;;;;5032315;28;20120;-75
2021/12/12 02:18:15;;;;;;;33.00;10.43;;;7.00;99.90;;;;;;5032922;28;20083;-75
2021/12/12 02:21:07;;;;;;;28.48;9.95;;;6.90;99.90;;;;;;5033304;28;20018;-75
2021/12/12 02:24:03;;;;;;;31.95;9.38;;;7.00;99.90;;;;;;5031638;28;20026;-75
2021/12/12 02:35:21;;;;;;;26.08;9.15;;;7.00;99.90;;;;;;5049468;28;20112;-75
2021/12/12 02:37:50;;;;;;;22.58;8.02;;;7.10;99.90;;;;;;5048990;28;20029;-75
2021/12/12 02:40:27;;;;;;;29.55;8.95;;;7.00;99.90;;;;;;5037755;28;20048;-75
2021/12/12 02:42:54;;;;;;;32.28;8.93;;;7.10;99.90;;;;;;5029801;28;20493;-75
2021/12/12 02:45:22;;;;;;;37.30;9.35;;;7.00;99.90;;;;;;5031901;28;20086;-75
2021/12/12 02:47:56;;;;;;;29.50;8.70;;;7.00;99.90;;;;;;5031383;28;20034;-75
2021/12/12 02:50:27;;;;;;;27.98;8.10;;;7.00;99.90;;;;;;5031580;28;20025;-75
2021/12/12 02:52:57;;;;;;;27.35;7.78;;;7.00;99.90;;;;;;5028173;28;20025;-75
2021/12/12 02:55:35;;;;;;;24.95;9.20;;;7.00;99.90;;;;;;5027624;28;20017;-75
2021/12/12 02:58:02;;;;;;;26.50;9.15;;;6.90;99.90;;;;;;5031489;28;20037;-76
2021/12/12 03:00:33;;;;;;;26.27;7.03;;;6.90;99.90;;;;;;5031759;28;20021;-75
2021/12/12 03:03:00;;;;;;;20.10;6.55;;;7.00;99.90;;;;;;5031729;28;20037;-75
2021/12/12 03:05:33;;;;;;;25.10;7.30;;;7.10;99.90;;;;;;5028540;28;20022;-75
2021/12/12 03:07:59;;;;;;;34.47;9.38;;;7.00;99.90;;;;;;5031699;28;20037;-75
2021/12/12 03:10:29;;;;;;;19.92;6.97;;;7.10;99.90;;;;;;5027717;28;20021;-76
2021/12/12 03:12:55;;;;;;;26.13;7.68;;;7.10;99.90;;;;;;5031943;28;20025;-75
2021/12/12 03:15:27;;;;;;;27.77;8.50;;;7.10;99.90;;;;;;5033043;28;20030;-76
2021/12/12 03:17:56;;;;;;;25.23;7.70;;;7.10;99.90;;;;;;5032775;28;20092;-75
2021/12/12 03:20:30;;;;;;;24.35;8.10;;;7.10;99.90;;;;;;5032480;28;20083;-76
2021/12/12 03:23:00;;;;;;;29.98;9.10;;;7.10;99.90;;;;;;5032370;28;20497;-75
2021/12/12 03:25:29;;;;;;;26.42;9.43;;;7.10;99.90;;;;;;5032459;28;20113;-75
2021/12/12 03:27:55;;;;;;;35.00;9.30;;;7.20;99.90;;;;;;5032603;28;20052;-75
2021/12/12 03:30:23;;;;;;;24.40;8.00;;;7.20;99.90;;;;;;5032907;28;20026;-75
2021/12/12 03:32:49;;;;;;;32.65;8.98;;;7.20;99.90;;;;;;5033013;28;20030;-75
2021/12/12 03:35:15;;;;;;;25.58;8.60;;;7.20;99.90;;;;;;5032590;28;20033;-75
2021/12/12 03:37:41;;;;;;;27.73;8.85;;;7.10;99.90;;;;;;5032867;28;20510;-75
2021/12/12 03:40:19;;;;;;;39.60;9.77;;;7.20;99.90;;;;;;5032521;28;20043;-75
2021/12/12 03:42:47;;;;;;;22.35;8.52;;;7.20;99.90;;;;;;5032778;28;20124;-75
2021/12/12 03:45:14;;;;;;;20.73;8.40;;;7.20;99.90;;;;;;5031759;28;20026;-75
2021/12/12 03:47:54;;;;;;;38.97;10.35;;;7.20;99.90;;;;;;5031602;28;20393;-75
2021/12/12 03:50:25;;;;;;;26.58;9.68;;;7.20;99.90;;;;;;5032117;28;20025;-75
2021/12/12 03:52:52;;;;;;;24.60;8.48;;;7.20;99.90;;;;;;5032703;28;20021;-75
2021/12/12 03:55:18;;;;;;;19.35;7.35;;;7.20;99.90;;;;;;5032504;28;20120;-75
2021/12/12 03:57:47;;;;;;;27.35;9.32;;;7.20;99.90;;;;;;5032392;28;20025;-75
2021/12/12 04:00:18;;;;;;;27.08;9.07;;;7.10;99.90;;;;;;5031349;28;20033;-75
2021/12/12 04:02:44;;;;;;;21.48;8.57;;;7.20;99.90;;;;;;5031888;28;20025;-75
2021/12/12 04:05:10;;;;;;;25.15;9.13;;;7.20;99.90;;;;;;5032267;28;20021;-74
2021/12/12 04:07:36;;;;;;;29.08;9.80;;;7.20;99.90;;;;;;5031304;28;20113;-75
2021/12/12 04:10:06;;;;;;;34.83;9.65;;;7.20;99.90;;;;;;5032222;28;20531;-75
2021/12/12 04:12:31;;;;;;;27.42;9.27;;;7.20;99.90;;;;;;5032390;28;20025;-75
2021/12/12 04:14:57;;;;;;;21.40;8.35;;;7.20;99.90;;;;;;5032481;28;20496;-74
2021/12/12 04:17:27;;;;;;;22.40;8.65;;;7.30;99.90;;;;;;5032154;28;20076;-75
2021/12/12 04:19:55;;;;;;;21.13;8.55;;;7.20;99.90;;;;;;5032265;28;20493;-75
2021/12/12 04:22:21;;;;;;;25.25;10.65;;;7.30;99.90;;;;;;5031466;28;20020;-74
2021/12/12 04:24:52;;;;;;;30.95;10.52;;;7.30;99.90;;;;;;5032087;28;20033;-75
2021/12/12 04:27:18;;;;;;;24.77;9.27;;;7.40;99.90;;;;;;5032256;28;20108;-74
2021/12/12 04:29:49;;;;;;;24.38;10.30;;;7.40;99.90;;;;;;5032335;28;20052;-74
2021/12/12 04:32:18;;;;;;;20.20;10.02;;;7.40;99.90;;;;;;5031888;28;20048;-74
2021/12/12 04:34:50;;;;;;;22.25;9.63;;;7.40;99.90;;;;;;5034400;28;20456;-74
2021/12/12 04:37:17;;;;;;;24.75;10.23;;;7.40;99.90;;;;;;5035951;28;20068;-75
2021/12/12 04:39:48;;;;;;;22.42;8.95;;;7.50;99.90;;;;;;5036063;28;20363;-75
2021/12/12 04:42:20;;;;;;;20.67;8.98;;;7.40;99.90;;;;;;5035371;28;20028;-74
2021/12/12 04:44:49;;;;;;;19.83;9.55;;;7.40;99.90;;;;;;5035969;28;20049;-74
2021/12/12 04:50:37;;;;;;;20.55;9.13;;;7.50;99.90;;;;;;5035656;28;20663;-74
2021/12/12 04:53:51;;;;;;;29.40;10.95;;;7.40;99.90;;;;;;5034186;28;20029;-75
2021/12/12 04:57:00;;;;;;;23.50;10.52;;;7.40;99.90;;;;;;5010900;28;20099;-74
2021/12/12 04:59:42;;;;;;;22.60;9.18;;;7.40;99.90;;;;;;5028693;28;20045;-74
2021/12/12 05:02:28;;;;;;;23.58;10.10;;;7.40;99.90;;;;;;5034885;28;20079;-74
2021/12/12 05:05:25;;;;;;;20.25;9.07;;;7.40;99.90;;;;;;5035233;28;20049;-74
2021/12/12 05:08:03;;;;;;;21.05;9.98;;;7.40;99.90;;;;;;5034685;28;20057;-75
2021/12/12 05:10:46;;;;;;;26.73;11.13;;;7.50;99.90;;;;;;5034305;28;20033;-74
2021/12/12 05:13:17;;;;;;;23.25;9.23;;;7.50;99.90;;;;;;5035175;28;20104;-74
2021/12/12 05:15:47;;;;;;;25.25;9.80;;;7.50;99.90;;;;;;5034871;28;20072;-74
2021/12/12 05:18:19;;;;;;;22.52;10.63;;;7.50;99.90;;;;;;5035015;28;20500;-74
2021/12/12 05:20:49;;;;;;;20.55;11.55;;;7.50;99.90;;;;;;5035310;28;20100;-74
2021/12/12 05:23:18;;;;;;;22.55;9.98;;;7.50;99.90;;;;;;5032915;28;20021;-74
2021/12/12 05:25:58;;;;;;;26.00;10.68;;;7.50;99.90;;;;;;5033316;28;20029;-74
2021/12/12 05:28:51;;;;;;;23.80;11.05;;;7.50;99.90;;;;;;5050396;28;20029;-75
2021/12/12 05:31:20;;;;;;;25.02;10.88;;;7.50;99.90;;;;;;5033414;28;20057;-75
2021/12/12 05:33:50;;;;;;;22.13;11.18;;;7.50;99.90;;;;;;5035346;28;20025;-75
2021/12/12 05:36:17;;;;;;;22.90;11.60;;;7.50;99.90;;;;;;5034614;28;20030;-75
2021/12/12 05:38:44;;;;;;;22.50;10.82;;;7.50;99.90;;;;;;5034865;28;20022;-75
2021/12/12 05:41:10;;;;;;;24.52;11.27;;;7.50;99.90;;;;;;5014916;28;20514;-75
2021/12/12 05:43:37;;;;;;;25.55;11.65;;;7.50;99.90;;;;;;5030938;28;20020;-75
2021/12/12 05:46:04;;;;;;;22.50;12.88;;;7.60;99.90;;;;;;5033889;28;20038;-75
2021/12/12 05:48:31;;;;;;;21.83;11.88;;;7.60;99.90;;;;;;5034715;28;20034;-75
2021/12/12 05:50:59;;;;;;;23.92;12.88;;;7.60;99.90;;;;;;5050178;28;20027;-75
2021/12/12 05:53:25;;;;;;;22.20;12.70;;;7.60;99.90;;;;;;5034468;28;20086;-74
2021/12/12 05:55:51;;;;;;;23.02;13.07;;;7.60;99.90;;;;;;5034022;28;20037;-75
2021/12/12 05:58:20;;;;;;;21.80;12.95;;;7.60;99.90;;;;;;5034492;28;20025;-74
2021/12/12 06:01:09;;;;;;;22.83;12.05;;;7.70;99.90;;;;;;5034202;28;20508;-74
2021/12/12 06:03:37;;;;;;;24.08;13.90;;;7.70;99.90;;;;;;5034222;28;20022;-74
2021/12/12 06:06:06;;;;;;;26.35;13.77;;;7.70;99.90;;;;;;5034237;28;20465;-74
2021/12/12 06:08:33;;;;;;;19.17;13.10;;;7.70;99.90;;;;;;5034173;28;20022;-75
2021/12/12 06:11:00;;;;;;;25.38;14.13;;;7.70;99.90;;;;;;5034297;28;20018;-75
2021/12/12 06:13:27;;;;;;;21.63;14.27;;;7.80;99.90;;;;;;5034029;28;20041;-75
2021/12/12 06:15:54;;;;;;;25.33;15.05;;;7.80;99.90;;;;;;5033472;28;20083;-75
2021/12/12 06:18:24;;;;;;;22.13;13.27;;;7.80;99.90;;;;;;5033628;28;20557;-75
2021/12/12 06:20:50;;;;;;;21.70;13.63;;;7.80;99.90;;;;;;5033087;28;20037;-75
2021/12/12 06:23:17;;;;;;;23.65;14.50;;;7.80;99.90;;;;;;5033977;28;20079;-75
2021/12/12 06:25:44;;;;;;;22.33;14.02;;;7.90;99.90;;;;;;5033314;28;20063;-75
2021/12/12 06:28:13;;;;;;;31.60;15.40;;;7.90;99.90;;;;;;5033653;28;20048;-75
2021/12/12 06:30:39;;;;;;;24.55;15.40;;;7.90;99.90;;;;;;5033355;28;20097;-75
2021/12/12 06:33:06;;;;;;;20.70;14.52;;;7.90;99.90;;;;;;5033164;28;20113;-75
2021/12/12 06:35:32;;;;;;;26.20;16.23;;;7.80;99.90;;;;;;5033568;28;20022;-75
2021/12/12 06:38:07;;;;;;;25.55;15.93;;;7.90;99.90;;;;;;5033598;28;20032;-75
2021/12/12 06:40:34;;;;;;;22.80;15.05;;;7.90;99.90;;;;;;5033826;28;20025;-75
2021/12/12 06:43:04;;;;;;;25.73;15.32;;;7.90;99.90;;;;;;5032548;28;20026;-75
2021/12/12 06:45:30;;;;;;;24.88;15.00;;;7.90;99.90;;;;;;5033103;28;20174;-75
2021/12/12 06:47:56;;;;;;;24.50;15.20;;;7.80;99.90;;;;;;5048422;28;20397;-75
2021/12/12 06:50:24;;;;;;;26.33;15.07;;;8.00;99.90;;;;;;5032830;28;20061;-75
2021/12/12 06:52:50;;;;;;;22.05;14.40;;;7.90;99.90;;;;;;5033471;28;20021;-75
2021/12/12 06:55:16;;;;;;;26.10;17.45;;;7.90;99.90;;;;;;5032140;28;20531;-75
2021/12/12 06:57:43;;;;;;;27.17;15.75;;;8.00;99.90;;;;;;5032393;28;20033;-75
2021/12/12 07:00:15;;;;;;;23.73;14.40;;;7.90;99.90;;;;;;5032155;28;20107;-75
2021/12/12 07:02:42;;;;;;;21.80;15.02;;;7.90;99.90;;;;;;5029882;28;20095;-75
2021/12/12 07:05:11;;;;;;;26.58;16.05;;;8.00;99.90;;;;;;5012768;28;20087;-76
2021/12/12 07:07:37;;;;;;;22.70;14.60;;;8.10;99.90;;;;;;5011525;28;20037;-75
2021/12/12 07:10:07;;;;;;;21.67;14.23;;;8.10;99.90;;;;;;5027865;28;20474;-75
2021/12/12 07:12:33;;;;;;;22.27;14.70;;;8.10;99.90;;;;;;5032825;28;20551;-76
2021/12/12 07:14:59;;;;;;;21.88;13.50;;;8.10;99.90;;;;;;5033140;28;20025;-75
2021/12/12 07:17:25;;;;;;;20.73;15.35;;;8.10;99.90;;;;;;5033090;28;20474;-75
2021/12/12 07:19:52;;;;;;;20.67;14.55;;;8.10;99.90;;;;;;5032695;28;20029;-75
2021/12/12 07:22:19;;;;;;;24.17;14.95;;;8.00;99.90;;;;;;5033095;28;20053;-76
2021/12/12 07:24:45;;;;;;;16.77;10.50;;;8.10;99.90;;;;;;5032211;28;20470;-75
2021/12/12 07:27:16;;;;;;;19.65;14.82;;;8.10;99.90;;;;;;5032121;28;20042;-75
2021/12/12 07:29:42;;;;;;;16.45;12.63;;;8.10;99.90;;;;;;5032782;28;20029;-75
2021/12/12 07:32:09;;;;;;;18.05;13.15;;;8.10;99.90;;;;;;5032437;28;20389;-76
2021/12/12 07:34:35;;;;;;;20.02;13.77;;;8.20;99.90;;;;;;5031548;28;20017;-75
2021/12/12 07:37:03;;;;;;;20.95;13.85;;;8.10;99.90;;;;;;5032212;28;20053;-75
2021/12/12 07:39:31;;;;;;;20.65;14.32;;;8.10;99.90;;;;;;5027568;28;20022;-75
2021/12/12 07:42:00;;;;;;;18.00;15.00;;;8.20;99.90;;;;;;5016662;28;20075;-75
2021/12/12 07:44:29;;;;;;;20.60;13.57;;;8.20;99.90;;;;;;5032174;28;20025;-75
2021/12/12 07:46:58;;;;;;;19.30;13.63;;;8.20;99.90;;;;;;5032740;28;20038;-75
2021/12/12 07:49:28;;;;;;;21.13;13.68;;;8.30;99.90;;;;;;5031530;28;20075;-75
2021/12/12 07:51:55;;;;;;;22.70;14.90;;;8.30;99.90;;;;;;5032681;28;20143;-75
2021/12/12 07:54:21;;;;;;;25.85;15.18;;;8.30;99.90;;;;;;5031869;28;20482;-75
2021/12/12 07:56:48;;;;;;;24.85;14.25;;;8.20;99.90;;;;;;5030520;28;20038;-76
2021/12/12 07:59:16;;;;;;;18.23;13.23;;;8.30;99.90;;;;;;5032714;28;20018;-76
2021/12/12 08:01:45;;;;;;;22.15;14.13;;;8.20;99.90;;;;;;5032535;28;20024;-76
2021/12/12 08:04:13;;;;;;;21.73;15.48;;;8.20;99.90;;;;;;5032249;28;20581;-75
2021/12/12 08:06:40;;;;;;;22.80;16.25;;;8.30;99.90;;;;;;5032370;28;20409;-75
2021/12/12 08:09:08;;;;;;;22.48;15.68;;;8.30;99.90;;;;;;5034257;28;20110;-75
2021/12/12 08:11:34;;;;;;;29.10;17.55;;;8.30;99.90;;;;;;5036145;28;20385;-75
2021/12/12 08:14:04;;;;;;;28.38;15.93;;;8.40;99.90;;;;;;5016714;28;20425;-75
2021/12/12 08:16:31;;;;;;;21.17;14.50;;;8.40;99.90;;;;;;5016583;28;20052;-75
2021/12/12 08:18:58;;;;;;;25.50;15.63;;;8.30;99.90;;;;;;5020158;28;20033;-75
2021/12/12 08:21:25;;;;;;;28.30;15.80;;;8.30;99.90;;;;;;5034592;28;20036;-73
2021/12/12 08:23:52;;;;;;;25.25;15.35;;;8.40;99.90;;;;;;5035961;28;20025;-75
2021/12/12 08:26:19;;;;;;;24.65;15.90;;;8.40;99.90;;;;;;5031371;28;20041;-75
2021/12/12 08:28:45;;;;;;;20.80;14.43;;;8.40;99.90;;;;;;5035233;28;20020;-75
2021/12/12 08:31:12;;;;;;;27.20;16.45;;;8.50;99.90;;;;;;5033675;28;20044;-75
2021/12/12 08:33:38;;;;;;;24.67;16.27;;;8.50;99.90;;;;;;5034183;28;20025;-75
2021/12/12 08:36:04;;;;;;;22.88;14.52;;;8.50;99.90;;;;;;5034748;28;20477;-75
2021/12/12 08:38:31;;;;;;;26.63;15.45;;;8.50;99.90;;;;;;5035149;28;20092;-75
2021/12/12 08:41:00;;;;;;;32.33;18.70;;;8.50;99.90;;;;;;5034255;28;20032;-75
2021/12/12 08:43:28;;;;;;;24.00;15.70;;;8.60;99.90;;;;;;5035274;28;20371;-74
2021/12/12 08:45:59;;;;;;;29.10;16.38;;;8.60;99.90;;;;;;5034259;28;20025;-74
2021/12/12 08:48:28;;;;;;;30.48;15.63;;;8.60;99.90;;;;;;5034284;28;20110;-75
2021/12/12 08:51:00;;;;;;;26.58;15.10;;;8.70;99.90;;;;;;5035132;28;20033;-74
2021/12/12 08:53:26;;;;;;;29.67;16.75;;;8.60;99.90;;;;;;5034176;28;20109;-75
2021/12/12 08:55:55;;;;;;;25.73;16.25;;;8.60;99.90;;;;;;5035094;28;20034;-75
2021/12/12 08:58:26;;;;;;;32.25;17.52;;;8.70;99.90;;;;;;5034796;28;20037;-74
2021/12/12 09:01:04;;;;;;;25.58;15.25;;;8.70;99.90;;;;;;5034917;28;20025;-75
2021/12/12 09:03:39;;;;;;;30.17;16.27;;;8.70;99.90;;;;;;5031856;28;20029;-75
2021/12/12 09:06:07;;;;;;;29.95;16.67;;;8.60;99.90;;;;;;5033595;28;20022;-74
2021/12/12 09:09:00;;;;;;;25.10;14.98;;;8.70;99.90;;;;;;5030136;28;20014;-74
2021/12/12 09:11:42;;;;;;;30.73;16.58;;;8.70;99.90;;;;;;5032822;28;20585;-74
2021/12/12 09:14:16;;;;;;;27.13;16.00;;;8.80;99.90;;;;;;5033648;28;20033;-75
2021/12/12 09:16:52;;;;;;;33.58;16.05;;;8.80;99.90;;;;;;5035646;28;20022;-74
2021/12/12 09:19:28;;;;;;;25.05;15.77;;;8.80;99.90;;;;;;5030642;28;20037;-74
2021/12/12 09:22:19;;;;;;;30.33;16.52;;;8.80;99.90;;;;;;5031557;28;20025;-74
2021/12/12 09:25:14;;;;;;;23.85;14.32;;;8.80;99.90;;;;;;5028792;28;20512;-74
2021/12/12 09:27:52;;;;;;;38.17;18.30;;;8.80;99.90;;;;;;5046898;28;20068;-75
2021/12/12 09:30:24;;;;;;;35.67;18.77;;;8.90;99.90;;;;;;5030950;28;20018;-74
2021/12/12 09:33:13;;;;;;;28.48;16.45;;;8.90;99.90;;;;;;5034142;28;20032;-75
2021/12/12 09:36:01;;;;;;;28.23;14.85;;;8.90;99.90;;;;;;5047407;28;20417;-74
2021/12/12 09:38:37;;;;;;;37.10;16.73;;;8.90;99.90;;;;;;5032809;28;20029;-74
2021/12/12 09:41:24;;;;;;;33.08;16.02;;;9.00;99.90;;;;;;5033660;28;20092;-75
2021/12/12 09:44:02;;;;;;;29.95;15.80;;;9.00;99.90;;;;;;5049008;28;20025;-75
2021/12/12 09:53:03;;;;;;;33.08;16.30;;;9.10;99.90;;;;;;5032740;28;20032;-74
2021/12/12 09:55:41;;;;;;;38.50;17.60;;;9.10;99.90;;;;;;5033532;28;20033;-75
2021/12/12 09:58:30;;;;;;;37.35;15.90;;;9.20;99.90;;;;;;5031299;28;20037;-75
2021/12/12 10:01:03;;;;;;;39.95;17.95;;;9.10;99.90;;;;;;5033847;28;20027;-75
2021/12/12 10:03:49;;;;;;;32.25;16.10;;;9.10;99.90;;;;;;5043434;28;20087;-75
2021/12/12 10:07:09;;;;;;;38.67;18.13;;;9.20;99.90;;;;;;5033152;28;20044;-75
2021/12/12 10:09:53;;;;;;;32.25;17.20;;;9.10;99.90;;;;;;5031473;28;20045;-74
2021/12/12 10:12:23;;;;;;;32.13;17.98;;;9.20;99.90;;;;;;5025201;28;20072;-75
2021/12/12 10:14:58;;;;;;;33.65;17.60;;;9.20;99.90;;;;;;5029283;28;20092;-76
2021/12/12 10:18:11;;;;;;;32.05;15.75;;;9.20;99.90;;;;;;5048328;28;20021;-75
2021/12/12 10:20:49;;;;;;;36.45;17.52;;;9.20;99.90;;;;;;5030611;28;20044;-77
2021/12/12 10:23:37;;;;;;;31.05;16.38;;;9.20;99.90;;;;;;5033168;28;20436;-77
2021/12/12 10:26:23;;;;;;;32.28;16.75;;;9.20;99.90;;;;;;5032438;28;20029;-76
2021/12/12 10:28:59;;;;;;;32.20;17.27;;;9.20;99.90;;;;;;5019970;28;20069;-75
2021/12/12 10:31:39;;;;;;;31.30;17.55;;;9.30;99.90;;;;;;5026987;28;20616;-75
2021/12/12 10:34:13;;;;;;;29.98;17.50;;;9.30;99.90;;;;;;5043201;28;20076;-76
2021/12/12 10:36:58;;;;;;;39.67;18.30;;;9.30;99.90;;;;;;5033252;28;20037;-77
2021/12/12 10:39:37;;;;;;;32.13;17.08;;;9.40;99.90;;;;;;5031472;28;20025;-76
2021/12/12 10:42:15;;;;;;;35.42;17.33;;;9.40;99.90;;;;;;5058530;28;20113;-77
2021/12/12 10:44:48;;;;;;;41.15;17.75;;;9.40;99.90;;;;;;5030405;28;20053;-76
2021/12/12 10:47:28;;;;;;;34.90;18.77;;;9.40;99.90;;;;;;5032112;28;20040;-78
2021/12/12 10:50:19;;;;;;;34.33;16.98;;;9.40;99.90;;;;;;5046966;28;20047;-77
2021/12/12 10:52:56;;;;;;;30.45;17.17;;;9.40;99.90;;;;;;5040791;28;20400;-76
2021/12/12 10:55:24;;;;;;;31.70;17.75;;;9.50;99.90;;;;;;5038967;28;20034;-76
2021/12/12 10:58:14;;;;;;;36.47;18.38;;;9.50;99.90;;;;;;5054877;28;20074;-76
2021/12/12 11:00:47;;;;;;;240.70;128.52;;;9.50;99.90;;;;;;5031490;28;20069;-76
2021/12/12 11:03:23;;;;;;;56.58;29.33;;;9.50;99.90;;;;;;5031896;28;20051;-76
2021/12/12 11:05:58;;;;;;;35.58;15.82;;;9.50;99.90;;;;;;5033913;28;20072;-74
2021/12/12 11:08:33;;;;;;;34.22;17.20;;;9.50;99.90;;;;;;5047154;28;20086;-76
2021/12/12 11:11:00;;;;;;;32.67;15.85;;;9.50;99.90;;;;;;5042239;28;20052;-76
2021/12/12 11:13:36;;;;;;;38.17;16.85;;;9.60;99.90;;;;;;5038665;28;20025;-76
2021/12/12 11:16:18;;;;;;;31.02;16.33;;;9.60;99.90;;;;;;5039288;28;20036;-76
2021/12/12 11:19:03;;;;;;;35.13;17.15;;;9.60;99.90;;;;;;5044415;28;20351;-76
2021/12/12 11:21:36;;;;;;;30.38;18.67;;;9.70;99.90;;;;;;5060906;28;20021;-76
2021/12/12 11:24:18;;;;;;;34.65;17.45;;;9.70;99.90;;;;;;5049109;28;20025;-76
2021/12/12 11:26:52;;;;;;;30.48;15.55;;;9.70;99.90;;;;;;5040788;28;20404;-76
2021/12/12 11:29:26;;;;;;;30.23;16.83;;;9.70;99.90;;;;;;5054767;28;20032;-76
2021/12/12 11:31:55;;;;;;;32.92;16.20;;;9.70;99.90;;;;;;5031189;28;20029;-76
2021/12/12 11:34:22;;;;;;;37.33;18.08;;;9.70;99.90;;;;;;5047372;28;20112;-76
2021/12/12 11:37:22;;;;;;;36.85;17.90;;;9.80;99.90;;;;;;5043764;28;20033;-78
2021/12/12 11:40:29;;;;;;;33.15;16.20;;;9.80;99.90;;;;;;5048877;28;20029;-77
2021/12/12 11:43:17;;;;;;;33.88;17.73;;;9.80;99.90;;;;;;5051464;28;20068;-77
2021/12/12 11:45:57;;;;;;;27.10;14.68;;;9.80;99.90;;;;;;5049751;28;20029;-77
2021/12/12 11:48:48;;;;;;;32.45;16.92;;;9.80;99.90;;;;;;5026932;28;20416;-77
2021/12/12 11:51:27;;;;;;;33.80;18.23;;;9.90;99.90;;;;;;5036149;28;20030;-77
2021/12/12 11:54:03;;;;;;;36.72;19.45;;;9.90;99.90;;;;;;5037173;28;20025;-77
2021/12/12 11:56:34;;;;;;;32.58;17.38;;;9.90;99.90;;;;;;5050103;28;20380;-76
2021/12/12 11:59:07;;;;;;;34.10;19.67;;;9.90;99.90;;;;;;5040976;28;20044;-77
2021/12/12 12:01:51;;;;;;;36.45;18.85;;;10.00;99.90;;;;;;5035110;28;20535;-78
2021/12/12 12:04:35;;;;;;;29.13;16.88;;;10.00;99.90;;;;;;5025019;28;20021;-78
2021/12/12 12:07:09;;;;;;;30.27;16.20;;;10.00;99.90;;;;;;5044551;28;20037;-77
2021/12/12 12:10:05;;;;;;;28.95;17.25;;;10.00;99.90;;;;;;5039792;28;20061;-77
2021/12/12 12:13:04;;;;;;;33.63;18.65;;;10.10;99.90;;;;;;5036141;28;20041;-77
2021/12/12 12:15:47;;;;;;;31.88;16.20;;;10.00;99.90;;;;;;5041744;28;20092;-77
2021/12/12 12:18:31;;;;;;;26.42;15.68;;;10.00;99.90;;;;;;5022650;28;20195;-76
2021/12/12 12:21:34;;;;;;;26.33;16.33;;;10.10;99.90;;;;;;5045593;28;20033;-77
2021/12/12 12:24:40;;;;;;;27.17;14.63;;;10.10;99.90;;;;;;5038421;28;20032;-77
2021/12/12 12:27:23;;;;;;;28.98;15.00;;;10.10;99.90;;;;;;5050414;28;20037;-77
2021/12/12 12:30:01;;;;;;;26.48;14.90;;;10.10;99.90;;;;;;5035653;28;20087;-75
2021/12/12 12:33:04;;;;;;;29.60;17.13;;;10.20;99.90;;;;;;5029323;28;20941;-76
2021/12/12 12:36:07;;;;;;;26.75;15.45;;;10.20;99.90;;;;;;5036124;28;20135;-77
2021/12/12 12:39:03;;;;;;;22.45;14.63;;;10.10;99.90;;;;;;5030093;28;20030;-76
2021/12/12 12:42:06;;;;;;;23.55;13.93;;;10.10;99.90;;;;;;5033103;28;20041;-76
2021/12/12 12:45:22;;;;;;;25.05;14.75;;;10.10;99.90;;;;;;5038814;28;20033;-76
2021/12/12 12:48:07;;;;;;;24.52;14.40;;;10.10;99.90;;;;;;5045131;28;20045;-76
2021/12/12 12:50:42;;;;;;;23.48;14.25;;;10.20;99.90;;;;;;5040836;28;20482;-76
2021/12/12 12:53:13;;;;;;;28.20;15.90;;;10.20;99.90;;;;;;5059634;28;20053;-80
2021/12/12 12:56:32;;;;;;;24.42;14.15;;;10.20;99.90;;;;;;5048457;28;20033;-79
2021/12/12 12:59:18;;;;;;;26.27;16.27;;;10.20;99.90;;;;;;5028562;28;20075;-79
2021/12/12 13:02:05;;;;;;;27.13;16.52;;;10.30;99.90;;;;;;5033204;28;20037;-79
2021/12/12 13:04:55;;;;;;;28.42;16.88;;;10.30;99.90;;;;;;5026958;28;20025;-78
2021/12/12 13:07:39;;;;;;;25.17;15.15;;;10.30;99.90;;;;;;5043267;28;20060;-77
2021/12/12 13:10:08;;;;;;;29.08;16.33;;;10.30;99.90;;;;;;5045058;28;20090;-78
2021/12/12 13:12:55;;;;;;;22.33;15.07;;;10.30;99.90;;;;;;5032091;28;20422;-78
2021/12/12 13:15:41;;;;;;;26.02;16.65;;;10.40;99.90;;;;;;5037636;28;20029;-78
2021/12/12 13:18:16;;;;;;;26.30;15.68;;;10.40;99.90;;;;;;5027751;28;20037;-78
2021/12/12 13:21:00;;;;;;;29.83;17.25;;;10.30;99.90;;;;;;5033257;28;20405;-79
2021/12/12 13:23:57;;;;;;;31.40;17.88;;;10.40;99.90;;;;;;5035018;28;20021;-79
2021/12/12 13:27:18;;;;;;;35.41;18.80;;;10.50;99.90;;;;;;4578829;28;10001704;-80
2021/12/12 13:30:04;;;;;;;40.50;19.80;;;10.50;99.90;;;;;;5031842;28;20026;-85
2021/12/12 13:32:36;;;;;;;33.28;19.60;;;10.40;99.90;;;;;;5028511;28;20108;-81
2021/12/12 13:35:39;;;;;;;37.22;19.67;;;10.50;99.90;;;;;;5027833;28;20022;-80
2021/12/12 13:38:27;;;;;;;35.25;20.63;;;10.50;99.90;;;;;;5036585;28;20037;-80